Time;durP1;ratioP1;P1;durP2;ratioP2;P2;SDS_P1;SDS_P2;PMS_P1;PMS_P2;Temp;Humidity;BMP_temperature;BMP_pressure;BME280_temperature;BME280_humidity;BME280_pressure;Samples;Min_cycle;Max_cycle;Signal;HPM_P1;HPM_P2
2023/05/22 00:01:55;;;;;;;20.35;18.23;;;16.40;89.80;;;;;;5047385;28;20037;-49
2023/05/22 00:04:21;;;;;;;20.77;18.60;;;16.40;89.90;;;;;;5045652;28;20024;-47
2023/05/22 00:06:48;;;;;;;20.25;18.20;;;16.30;89.90;;;;;;5052198;28;20111;-46
2023/05/22 00:09:15;;;;;;;19.65;17.60;;;16.30;89.90;;;;;;5051297;28;20025;-50
2023/05/22 00:11:42;;;;;;;21.23;19.13;;;16.30;90.00;;;;;;5053416;28;20040;-45
2023/05/22 00:14:09;;;;;;;20.05;18.05;;;16.30;90.00;;;;;;5054637;28;20505;-46
2023/05/22 00:16:36;;;;;;;20.70;18.65;;;16.20;90.10;;;;;;5050888;28;20029;-46
2023/05/22 00:19:03;;;;;;;20.60;18.45;;;16.20;90.20;;;;;;5053154;28;20391;-49
2023/05/22 00:21:33;;;;;;;20.50;18.40;;;16.20;90.20;;;;;;5018276;28;20049;-47
2023/05/22 00:24:01;;;;;;;20.67;18.58;;;16.30;90.20;;;;;;5033632;28;20091;-48
2023/05/22 00:26:27;;;;;;;19.33;17.33;;;16.20;90.30;;;;;;5049698;28;20029;-50
2023/05/22 00:28:56;;;;;;;20.73;18.55;;;16.20;90.40;;;;;;5053559;28;20037;-45
2023/05/22 00:31:23;;;;;;;19.30;17.52;;;16.20;90.60;;;;;;5051715;28;20029;-49
2023/05/22 00:33:49;;;;;;;19.98;18.17;;;16.30;90.50;;;;;;5045205;28;20029;-47
2023/05/22 00:36:17;;;;;;;19.33;17.42;;;16.30;90.60;;;;;;5053227;28;20048;-50
2023/05/22 00:38:45;;;;;;;19.45;17.42;;;16.30;90.50;;;;;;5053325;28;20032;-49
2023/05/22 00:41:12;;;;;;;18.75;17.05;;;16.40;90.40;;;;;;5035935;28;20056;-48
2023/05/22 00:43:39;;;;;;;19.77;17.90;;;16.40;90.30;;;;;;5051358;28;20038;-51
2023/05/22 00:46:08;;;;;;;18.60;16.80;;;16.40;90.10;;;;;;5034154;28;20033;-46
2023/05/22 00:48:35;;;;;;;17.38;15.82;;;16.40;90.00;;;;;;5052597;28;20060;-49
2023/05/22 00:51:02;;;;;;;19.48;17.38;;;16.40;89.80;;;;;;5035241;28;20044;-47
2023/05/22 00:53:30;;;;;;;17.95;16.15;;;16.50;89.60;;;;;;5035648;28;20420;-49
2023/05/22 00:56:00;;;;;;;18.88;16.92;;;16.50;89.70;;;;;;5050175;28;20025;-48
2023/05/22 00:58:26;;;;;;;;;;;16.50;89.50;;;;;;5050744;28;20462;-48
2023/05/22 01:00:54;;;;;;;18.65;16.88;;;16.50;89.50;;;;;;5051038;28;19920;-48
2023/05/22 01:03:24;;;;;;;17.67;15.98;;;16.50;89.30;;;;;;5051249;28;20025;-47
2023/05/22 01:05:52;;;;;;;17.85;16.20;;;16.40;89.30;;;;;;5050816;28;20035;-46
2023/05/22 01:08:22;;;;;;;19.30;16.00;;;16.40;89.30;;;;;;5051139;28;20029;-48
2023/05/22 01:11:01;;;;;;;21.92;15.98;;;16.40;89.40;;;;;;5052476;28;20029;-47
2023/05/22 01:14:07;;;;;;;18.50;16.77;;;16.40;89.40;;;;;;5046541;28;20020;-48
2023/05/22 01:16:48;;;;;;;17.25;15.45;;;16.40;89.40;;;;;;5021922;28;20037;-48
2023/05/22 01:20:06;;;;;;;17.30;15.77;;;16.40;89.60;;;;;;5042837;28;20037;-48
2023/05/22 01:23:05;;;;;;;19.40;15.73;;;16.40;89.60;;;;;;5036048;28;20131;-45
2023/05/22 01:26:02;;;;;;;18.65;16.80;;;16.40;89.60;;;;;;5035511;28;20025;-47
2023/05/22 01:28:47;;;;;;;17.70;15.88;;;16.40;89.50;;;;;;5018781;28;20150;-46
2023/05/22 01:31:16;;;;;;;17.15;15.55;;;16.30;89.50;;;;;;5048175;28;20025;-46
2023/05/22 01:33:46;;;;;;;17.50;15.73;;;16.30;89.70;;;;;;5052110;28;20025;-46
2023/05/22 01:36:18;;;;;;;17.70;15.82;;;16.30;89.80;;;;;;5021539;28;20042;-47
2023/05/22 01:38:46;;;;;;;18.02;16.33;;;16.30;89.80;;;;;;5038266;28;20036;-48
2023/05/22 01:41:13;;;;;;;17.33;15.63;;;16.30;89.70;;;;;;5033549;28;20142;-46
2023/05/22 01:43:41;;;;;;;16.55;14.73;;;16.30;89.60;;;;;;5052246;28;20036;-45
2023/05/22 01:46:06;;;;;;;17.08;15.05;;;16.20;89.50;;;;;;5029399;28;20083;-49
2023/05/22 01:48:34;;;;;;;16.55;14.95;;;16.20;89.50;;;;;;5036964;28;20029;-47
2023/05/22 01:51:18;;;;;;;19.70;17.90;;;16.20;89.70;;;;;;5051186;28;20025;-46
2023/05/22 01:53:56;;;;;;;16.23;14.52;;;16.20;89.70;;;;;;5036477;28;20021;-49
2023/05/22 01:56:48;;;;;;;19.35;15.48;;;16.20;89.60;;;;;;5037995;28;20033;-49
2023/05/22 01:59:48;;;;;;;17.13;15.32;;;16.20;89.40;;;;;;5001395;28;20052;-49
2023/05/22 02:02:18;;;;;;;18.52;16.05;;;16.20;89.50;;;;;;5050672;28;20018;-49
2023/05/22 02:05:08;;;;;;;19.25;16.73;;;16.10;89.50;;;;;;5048125;28;20131;-46
2023/05/22 02:07:38;;;;;;;18.50;15.80;;;16.10;89.60;;;;;;5037258;28;20029;-48
2023/05/22 02:10:10;;;;;;;17.35;15.57;;;16.10;89.60;;;;;;5033890;28;20082;-51
2023/05/22 02:12:36;;;;;;;17.10;15.43;;;16.10;89.70;;;;;;5049289;28;20520;-48
2023/05/22 02:15:04;;;;;;;18.42;16.63;;;16.10;89.50;;;;;;5034021;28;20029;-47
2023/05/22 02:17:39;;;;;;;19.58;17.85;;;16.10;89.40;;;;;;5052189;28;20025;-48
2023/05/22 02:20:14;;;;;;;18.75;16.92;;;16.10;89.20;;;;;;5051605;28;20025;-46
2023/05/22 02:22:43;;;;;;;17.45;15.73;;;16.10;89.20;;;;;;5029010;28;20052;-46
2023/05/22 02:25:13;;;;;;;18.60;16.75;;;16.10;89.30;;;;;;5052272;28;20028;-46
2023/05/22 02:27:45;;;;;;;19.00;16.75;;;16.10;89.40;;;;;;5051387;28;20037;-46
2023/05/22 02:30:13;;;;;;;17.55;15.75;;;16.10;89.30;;;;;;5050218;28;20033;-45
2023/05/22 02:32:40;;;;;;;23.00;17.17;;;16.10;89.40;;;;;;5052897;28;20021;-47
2023/05/22 02:35:07;;;;;;;19.77;16.40;;;16.00;89.50;;;;;;5054918;28;20025;-46
2023/05/22 02:37:35;;;;;;;17.50;15.65;;;16.10;89.50;;;;;;5048272;28;20049;-47
2023/05/22 02:40:04;;;;;;;18.55;16.88;;;16.10;89.50;;;;;;5054211;28;20029;-50
2023/05/22 02:42:32;;;;;;;17.92;16.20;;;16.10;89.50;;;;;;5049253;28;20029;-46
2023/05/22 02:45:04;;;;;;;17.95;16.15;;;16.10;89.50;;;;;;5037887;28;20600;-49
2023/05/22 02:47:31;;;;;;;17.45;15.75;;;16.10;89.50;;;;;;5055077;28;20033;-51
2023/05/22 02:49:57;;;;;;;18.15;16.30;;;16.10;89.50;;;;;;5053628;28;20051;-49
2023/05/22 02:52:24;;;;;;;17.17;15.57;;;16.10;89.50;;;;;;5041326;28;20471;-47
2023/05/22 02:54:53;;;;;;;17.83;16.00;;;16.10;89.40;;;;;;5021102;28;20025;-51
2023/05/22 02:57:20;;;;;;;19.03;16.93;;;16.10;89.50;;;;;;5053878;28;20029;-48
2023/05/22 02:59:45;;;;;;;19.00;17.00;;;16.10;89.40;;;;;;5042206;28;20045;-46
2023/05/22 03:02:13;;;;;;;18.98;17.08;;;16.10;89.30;;;;;;5051941;28;20045;-48
2023/05/22 03:04:40;;;;;;;17.83;15.82;;;16.10;89.30;;;;;;5049221;28;20028;-46
2023/05/22 03:07:07;;;;;;;17.83;16.13;;;16.10;89.40;;;;;;5050097;28;20036;-49
2023/05/22 03:09:34;;;;;;;19.58;16.10;;;16.00;89.30;;;;;;5036045;28;20021;-46
2023/05/22 03:12:01;;;;;;;17.67;16.05;;;16.00;89.30;;;;;;5053084;28;20044;-48
2023/05/22 03:14:31;;;;;;;17.70;15.88;;;16.00;89.40;;;;;;5037187;28;20035;-48
2023/05/22 03:16:58;;;;;;;17.02;15.43;;;16.00;89.30;;;;;;5051600;28;20025;-49
2023/05/22 03:19:25;;;;;;;17.98;16.13;;;16.00;89.40;;;;;;5049871;28;20029;-46
2023/05/22 03:21:52;;;;;;;20.52;16.27;;;16.00;89.30;;;;;;5054691;28;20063;-46
2023/05/22 03:24:19;;;;;;;17.55;15.93;;;16.00;89.20;;;;;;5036594;28;20036;-47
2023/05/22 03:26:46;;;;;;;17.05;15.45;;;16.00;89.10;;;;;;5035732;28;20041;-48
2023/05/22 03:29:13;;;;;;;18.75;16.75;;;16.00;89.00;;;;;;5038851;28;20045;-45
2023/05/22 03:31:39;;;;;;;17.30;15.65;;;16.00;89.00;;;;;;5047479;28;20108;-47
2023/05/22 03:34:07;;;;;;;18.58;16.88;;;16.00;88.90;;;;;;5036582;28;20111;-48
2023/05/22 03:36:38;;;;;;;17.77;16.08;;;16.00;88.90;;;;;;5053622;28;20459;-51
2023/05/22 03:39:05;;;;;;;16.85;14.45;;;16.00;88.90;;;;;;5053953;28;20041;-47
2023/05/22 03:41:32;;;;;;;15.70;14.30;;;16.00;88.90;;;;;;5052480;28;20029;-50
2023/05/22 03:43:59;;;;;;;17.40;15.55;;;16.00;88.90;;;;;;5041841;28;20099;-49
2023/05/22 03:46:25;;;;;;;21.08;15.15;;;16.00;88.70;;;;;;5050607;28;20128;-47
2023/05/22 03:48:51;;;;;;;16.52;15.00;;;16.00;88.70;;;;;;5051413;28;20099;-46
2023/05/22 03:51:18;;;;;;;15.60;14.10;;;16.00;88.70;;;;;;5048205;28;20083;-49
2023/05/22 03:53:44;;;;;;;17.83;15.95;;;16.00;88.70;;;;;;5035145;28;20629;-48
2023/05/22 03:56:12;;;;;;;17.25;15.45;;;16.00;88.60;;;;;;5039802;28;20336;-50
2023/05/22 03:58:39;;;;;;;16.52;14.90;;;16.00;88.60;;;;;;5052677;28;20032;-46
2023/05/22 04:01:08;;;;;;;15.95;14.45;;;16.00;88.50;;;;;;5034861;28;20055;-47
2023/05/22 04:03:38;;;;;;;16.00;14.40;;;16.10;88.50;;;;;;5052903;28;20039;-46
2023/05/22 04:06:09;;;;;;;16.58;15.02;;;16.10;88.40;;;;;;5050599;28;20731;-46
2023/05/22 04:08:36;;;;;;;16.95;15.23;;;16.10;88.30;;;;;;5053943;28;20029;-49
2023/05/22 04:11:07;;;;;;;17.05;15.45;;;16.10;88.30;;;;;;5050645;28;20033;-47
2023/05/22 04:13:33;;;;;;;17.63;15.07;;;16.10;88.20;;;;;;5036256;28;20385;-49
2023/05/22 04:16:00;;;;;;;14.88;13.48;;;16.20;88.10;;;;;;5052287;28;20025;-49
2023/05/22 04:18:27;;;;;;;14.32;12.93;;;16.20;88.10;;;;;;5052198;28;20067;-46
2023/05/22 04:20:54;;;;;;;17.13;15.63;;;16.20;88.00;;;;;;5052829;28;20442;-48
2023/05/22 04:23:24;;;;;;;17.08;15.63;;;16.30;87.90;;;;;;5053142;28;20523;-48
2023/05/22 04:25:52;;;;;;;16.15;13.70;;;16.30;87.80;;;;;;5053645;28;20033;-50
2023/05/22 04:28:22;;;;;;;15.70;14.38;;;16.40;87.50;;;;;;5050055;28;20064;-48
2023/05/22 04:30:51;;;;;;;14.98;13.43;;;16.40;87.50;;;;;;5035472;28;20021;-48
2023/05/22 04:33:20;;;;;;;14.13;12.82;;;16.40;87.30;;;;;;5052770;28;20025;-48
2023/05/22 04:35:47;;;;;;;14.13;12.80;;;16.50;87.20;;;;;;5050736;28;20025;-47
2023/05/22 04:38:14;;;;;;;13.25;11.98;;;16.60;87.10;;;;;;5035568;28;20033;-48
2023/05/22 04:40:42;;;;;;;15.80;14.07;;;16.60;87.00;;;;;;5052909;28;20056;-48
2023/05/22 04:43:11;;;;;;;14.15;12.13;;;16.70;86.70;;;;;;5051265;28;20033;-47
2023/05/22 04:45:41;;;;;;;14.07;12.77;;;16.70;86.70;;;;;;5050254;28;20135;-49
2023/05/22 04:48:07;;;;;;;15.45;13.20;;;16.80;86.30;;;;;;5053223;28;20044;-46
2023/05/22 04:50:34;;;;;;;14.25;12.82;;;16.70;86.30;;;;;;5052902;28;20021;-49
2023/05/22 04:53:02;;;;;;;18.13;12.80;;;16.70;86.50;;;;;;5051639;28;20040;-47
2023/05/22 04:55:32;;;;;;;14.20;12.70;;;16.60;86.70;;;;;;5051532;28;20481;-48
2023/05/22 04:57:59;;;;;;;13.43;12.20;;;16.50;87.00;;;;;;5045316;28;20029;-52
2023/05/22 05:00:27;;;;;;;14.57;13.13;;;16.50;87.30;;;;;;5027919;28;20033;-51
2023/05/22 05:02:54;;;;;;;14.68;13.38;;;16.40;87.50;;;;;;5045921;28;20021;-51
2023/05/22 05:05:21;;;;;;;14.38;12.88;;;16.40;87.70;;;;;;5047857;28;20070;-50
2023/05/22 05:07:50;;;;;;;14.00;12.25;;;16.40;87.70;;;;;;5048791;28;20025;-49
2023/05/22 05:10:17;;;;;;;18.97;13.47;;;16.40;87.80;;;;;;5052438;28;20025;-49
2023/05/22 05:12:44;;;;;;;17.08;14.27;;;16.30;87.90;;;;;;5048980;28;20021;-51
2023/05/22 05:15:10;;;;;;;15.95;14.50;;;16.30;88.10;;;;;;5033727;28;20029;-51
2023/05/22 05:17:37;;;;;;;17.88;12.60;;;16.30;88.20;;;;;;5034269;28;20036;-47
2023/05/22 05:20:06;;;;;;;14.13;12.73;;;16.40;88.40;;;;;;5031036;28;20033;-48
2023/05/22 05:22:33;;;;;;;17.00;14.50;;;16.40;88.40;;;;;;5050303;28;20040;-48
2023/05/22 05:25:00;;;;;;;15.63;13.88;;;16.40;88.20;;;;;;5048804;28;20032;-48
2023/05/22 05:27:27;;;;;;;18.42;15.15;;;16.40;88.10;;;;;;5046150;28;20121;-51
2023/05/22 05:29:53;;;;;;;16.92;14.20;;;16.40;88.20;;;;;;5031565;28;20040;-48
2023/05/22 05:32:20;;;;;;;16.48;14.88;;;16.40;88.20;;;;;;5049564;28;20013;-50
2023/05/22 05:34:46;;;;;;;17.13;14.80;;;16.40;88.20;;;;;;5033620;28;20043;-48
2023/05/22 05:37:13;;;;;;;17.98;16.20;;;16.50;88.30;;;;;;5050718;28;20719;-51
2023/05/22 05:39:40;;;;;;;16.50;15.00;;;16.40;88.30;;;;;;5047042;28;20029;-48
2023/05/22 05:42:07;;;;;;;19.83;15.18;;;16.40;88.20;;;;;;5046895;28;20373;-46
2023/05/22 05:44:34;;;;;;;14.27;12.88;;;16.40;88.20;;;;;;5051404;28;20560;-47
2023/05/22 05:46:59;;;;;;;16.02;14.15;;;16.40;88.30;;;;;;5026359;28;20128;-46
2023/05/22 05:49:26;;;;;;;15.70;13.98;;;16.50;88.30;;;;;;5043573;28;20185;-50
2023/05/22 05:51:52;;;;;;;15.55;13.95;;;16.40;88.30;;;;;;5052332;28;20381;-48
2023/05/22 05:54:19;;;;;;;14.15;12.85;;;16.40;87.90;;;;;;5045919;28;20033;-47
2023/05/22 05:56:46;;;;;;;15.65;13.88;;;16.50;87.90;;;;;;5033700;28;20025;-46
2023/05/22 05:59:13;;;;;;;18.42;14.20;;;16.50;87.50;;;;;;5040685;28;20031;-47
2023/05/22 06:01:45;;;;;;;17.33;14.65;;;16.50;87.30;;;;;;5042616;28;20508;-47
2023/05/22 06:04:13;;;;;;;15.55;14.05;;;16.50;87.30;;;;;;5044557;28;20067;-46
2023/05/22 06:06:41;;;;;;;15.32;13.82;;;16.60;87.40;;;;;;5049307;28;20029;-47
2023/05/22 06:09:08;;;;;;;13.85;12.55;;;16.60;87.30;;;;;;5032112;28;20028;-48
2023/05/22 06:11:35;;;;;;;13.80;12.50;;;16.60;87.40;;;;;;5047237;28;20033;-47
2023/05/22 06:14:06;;;;;;;14.30;12.82;;;16.70;87.20;;;;;;5050309;28;20013;-48
2023/05/22 06:16:33;;;;;;;13.55;12.25;;;16.70;87.10;;;;;;5043014;28;20022;-48
2023/05/22 06:19:03;;;;;;;13.63;12.23;;;16.70;87.10;;;;;;5032537;28;20029;-48
2023/05/22 06:21:30;;;;;;;13.93;12.45;;;16.60;87.10;;;;;;5033411;28;20198;-47
2023/05/22 06:23:57;;;;;;;15.55;13.63;;;16.60;87.10;;;;;;5052090;28;20033;-46
2023/05/22 06:26:24;;;;;;;13.68;12.27;;;16.70;87.20;;;;;;5044449;28;20105;-47
2023/05/22 06:28:50;;;;;;;14.18;12.65;;;16.70;87.30;;;;;;5020571;28;20079;-49
2023/05/22 06:31:17;;;;;;;16.25;14.05;;;16.70;87.30;;;;;;5045778;28;20028;-48
2023/05/22 06:33:43;;;;;;;14.98;13.57;;;16.60;87.60;;;;;;5027955;28;20029;-51
2023/05/22 06:36:10;;;;;;;16.00;14.40;;;16.70;88.30;;;;;;5045700;28;20017;-46
2023/05/22 06:38:40;;;;;;;15.88;14.30;;;16.60;88.50;;;;;;5054125;28;20338;-47
2023/05/22 06:41:08;;;;;;;16.85;14.10;;;16.60;88.50;;;;;;5049275;28;20091;-46
2023/05/22 06:43:35;;;;;;;19.40;14.73;;;16.60;88.70;;;;;;5053429;28;20033;-47
2023/05/22 06:46:03;;;;;;;16.10;13.43;;;16.60;88.80;;;;;;5051532;28;20040;-47
2023/05/22 06:48:33;;;;;;;18.17;13.30;;;16.50;88.60;;;;;;5046396;28;20063;-47
2023/05/22 06:51:00;;;;;;;19.40;16.20;;;16.50;88.30;;;;;;5042755;28;20029;-47
2023/05/22 06:53:28;;;;;;;19.10;15.05;;;16.40;88.50;;;;;;5051538;28;20059;-48
2023/05/22 06:55:55;;;;;;;16.58;14.90;;;16.50;88.70;;;;;;5051349;28;20031;-48
2023/05/22 06:58:21;;;;;;;17.13;15.35;;;16.40;89.10;;;;;;5024488;28;20128;-50
2023/05/22 07:00:48;;;;;;;18.25;16.48;;;16.40;89.10;;;;;;5029756;28;20065;-48
2023/05/22 07:03:15;;;;;;;19.70;17.52;;;16.20;89.00;;;;;;5033676;28;20040;-46
2023/05/22 07:05:45;;;;;;;19.75;16.75;;;16.10;89.20;;;;;;5036790;28;20077;-51
2023/05/22 07:08:12;;;;;;;18.30;16.05;;;16.00;89.40;;;;;;5036911;28;20463;-49
2023/05/22 07:10:39;;;;;;;18.83;15.32;;;15.90;89.90;;;;;;5049960;28;20032;-48
2023/05/22 07:13:06;;;;;;;16.35;14.50;;;15.90;90.00;;;;;;5025078;28;21365;-47
2023/05/22 07:15:33;;;;;;;19.13;15.10;;;15.80;90.10;;;;;;5043524;28;20466;-47
2023/05/22 07:18:00;;;;;;;18.95;16.20;;;15.80;90.30;;;;;;5047847;28;20039;-48
2023/05/22 07:20:27;;;;;;;21.30;16.33;;;15.70;90.50;;;;;;5048055;28;20029;-47
2023/05/22 07:22:53;;;;;;;18.15;16.00;;;15.70;90.50;;;;;;5042058;28;20087;-46
2023/05/22 07:25:20;;;;;;;46.83;18.13;;;15.70;90.60;;;;;;5047014;28;20355;-46
2023/05/22 07:27:47;;;;;;;19.98;14.73;;;15.70;90.50;;;;;;5046038;28;20013;-46
2023/05/22 07:30:14;;;;;;;27.35;17.58;;;15.60;90.60;;;;;;5045684;28;20332;-50
2023/05/22 07:32:41;;;;;;;27.88;16.83;;;15.60;90.60;;;;;;5024970;28;20041;-49
2023/05/22 07:35:09;;;;;;;17.98;15.75;;;15.60;90.70;;;;;;5041246;28;20035;-46
2023/05/22 07:37:37;;;;;;;22.02;16.98;;;15.50;90.80;;;;;;5048077;28;20036;-48
2023/05/22 07:40:06;;;;;;;21.23;17.90;;;15.50;90.90;;;;;;5047526;28;20488;-46
2023/05/22 07:42:33;;;;;;;16.15;14.07;;;15.50;91.10;;;;;;5048555;28;20068;-47
2023/05/22 07:45:03;;;;;;;20.73;13.98;;;15.50;91.30;;;;;;5046793;28;20516;-56
2023/05/22 07:47:29;;;;;;;18.70;15.30;;;15.60;91.20;;;;;;5036709;28;20653;-53
2023/05/22 07:49:55;;;;;;;26.65;16.02;;;15.50;91.10;;;;;;5050059;28;20474;-57
2023/05/22 07:52:22;;;;;;;24.98;16.25;;;15.50;91.20;;;;;;5045044;28;20071;-55
2023/05/22 07:54:49;;;;;;;20.33;15.45;;;15.40;91.30;;;;;;5044388;28;20046;-51
2023/05/22 07:57:19;;;;;;;17.60;15.20;;;15.40;91.80;;;;;;5034013;28;20052;-57
2023/05/22 07:59:46;;;;;;;23.42;16.25;;;15.30;91.90;;;;;;5047845;28;20032;-56
2023/05/22 08:02:14;;;;;;;22.65;18.38;;;15.30;92.00;;;;;;5047165;28;20036;-54
2023/05/22 08:04:43;;;;;;;21.23;16.52;;;15.20;92.40;;;;;;5045014;28;20376;-51
2023/05/22 08:07:10;;;;;;;24.48;18.25;;;15.10;92.40;;;;;;5045211;28;20497;-56
2023/05/22 08:09:37;;;;;;;23.13;17.70;;;15.00;92.50;;;;;;5037099;28;20033;-56
2023/05/22 08:12:05;;;;;;;23.23;18.17;;;15.00;92.80;;;;;;5031934;28;20452;-56
2023/05/22 08:14:31;;;;;;;22.15;18.48;;;14.90;93.00;;;;;;5032568;28;20043;-57
2023/05/22 08:16:59;;;;;;;22.60;17.95;;;14.80;93.20;;;;;;5039819;28;20030;-54
2023/05/22 08:19:26;;;;;;;21.55;17.52;;;14.90;93.50;;;;;;5048286;28;20021;-54
2023/05/22 08:21:56;;;;;;;32.10;19.00;;;14.90;93.60;;;;;;5045481;28;20060;-56
2023/05/22 08:24:27;;;;;;;28.88;18.98;;;14.90;93.80;;;;;;5041897;28;20397;-55
2023/05/22 08:26:57;;;;;;;23.83;18.95;;;14.90;93.90;;;;;;5038237;28;20110;-56
2023/05/22 08:29:24;;;;;;;25.15;19.50;;;14.90;94.00;;;;;;5040128;28;20383;-57
2023/05/22 08:31:52;;;;;;;36.45;20.85;;;14.90;94.00;;;;;;5049045;28;20025;-57
2023/05/22 08:34:25;;;;;;;46.05;22.35;;;14.90;94.00;;;;;;5042505;28;20032;-52
2023/05/22 08:36:52;;;;;;;34.08;20.13;;;14.90;94.00;;;;;;5028554;28;20423;-57
2023/05/22 08:39:18;;;;;;;28.63;22.17;;;14.80;94.00;;;;;;5041180;28;20042;-56
2023/05/22 08:41:46;;;;;;;44.25;22.95;;;14.80;94.10;;;;;;5020803;28;20033;-58
2023/05/22 08:44:13;;;;;;;44.13;22.15;;;14.80;94.20;;;;;;5044010;28;20108;-57
2023/05/22 08:46:44;;;;;;;40.05;23.27;;;14.70;94.30;;;;;;5038362;28;20048;-54
2023/05/22 08:49:12;;;;;;;35.80;23.70;;;14.70;94.40;;;;;;5043328;28;20025;-52
2023/05/22 08:51:43;;;;;;;35.63;21.92;;;14.70;94.40;;;;;;5029452;28;20041;-52
2023/05/22 08:54:11;;;;;;;43.10;23.90;;;14.70;94.50;;;;;;5038595;28;20021;-55
2023/05/22 08:56:39;;;;;;;38.80;23.15;;;14.70;94.50;;;;;;5040191;28;20105;-55
2023/05/22 08:59:06;;;;;;;39.42;23.70;;;14.80;94.60;;;;;;5042755;28;20048;-50
2023/05/22 09:01:33;;;;;;;38.70;21.83;;;14.80;94.50;;;;;;5041023;28;20044;-49
2023/05/22 09:04:02;;;;;;;36.28;22.80;;;14.90;94.60;;;;;;5028171;28;20055;-48
2023/05/22 09:06:31;;;;;;;35.33;22.17;;;14.90;94.70;;;;;;5031766;28;20365;-47
2023/05/22 09:08:58;;;;;;;40.72;22.50;;;15.00;94.60;;;;;;5043016;28;20072;-47
2023/05/22 09:11:25;;;;;;;32.10;21.50;;;15.00;94.60;;;;;;5043140;28;20087;-46
2023/05/22 09:14:05;;;;;;;35.55;23.00;;;15.10;94.60;;;;;;5048213;28;20033;-49
2023/05/22 09:16:31;;;;;;;30.83;21.27;;;15.10;94.50;;;;;;5035704;28;20067;-47
2023/05/22 09:18:58;;;;;;;33.33;19.48;;;15.20;94.40;;;;;;5043038;28;20047;-47
2023/05/22 09:21:28;;;;;;;22.67;17.73;;;15.20;94.20;;;;;;5043616;28;20041;-46
2023/05/22 09:24:01;;;;;;;33.60;18.10;;;15.30;94.30;;;;;;5049773;28;20021;-51
2023/05/22 09:26:28;;;;;;;28.40;18.67;;;15.30;94.10;;;;;;5043260;28;20028;-49
2023/05/22 09:29:00;;;;;;;34.85;17.80;;;15.30;93.90;;;;;;5050158;28;20021;-58
2023/05/22 09:31:30;;;;;;;27.75;18.30;;;15.20;93.90;;;;;;5030272;28;20043;-51
2023/05/22 09:33:58;;;;;;;23.38;17.17;;;15.20;93.80;;;;;;5048397;28;20072;-54
2023/05/22 09:36:32;;;;;;;29.08;19.48;;;15.20;94.00;;;;;;5039576;28;20113;-55
2023/05/22 09:39:03;;;;;;;41.65;19.42;;;15.20;94.10;;;;;;5043175;28;20029;-56
2023/05/22 09:41:34;;;;;;;27.27;17.50;;;15.20;93.90;;;;;;5046287;28;20431;-56
2023/05/22 09:44:10;;;;;;;27.55;17.20;;;15.20;94.00;;;;;;5045507;28;20025;-55
2023/05/22 09:46:43;;;;;;;27.30;17.58;;;15.10;93.90;;;;;;5038284;28;20033;-55
2023/05/22 09:49:11;;;;;;;30.08;18.08;;;15.10;94.00;;;;;;5045148;28;20459;-53
2023/05/22 09:51:40;;;;;;;37.22;18.45;;;15.10;94.10;;;;;;5010512;28;20036;-55
2023/05/22 09:54:08;;;;;;;37.97;18.00;;;15.10;94.20;;;;;;5049277;28;20037;-52
2023/05/22 09:56:35;;;;;;;33.53;19.80;;;15.10;94.20;;;;;;5046011;28;20056;-53
2023/05/22 09:59:07;;;;;;;32.45;19.90;;;15.20;94.40;;;;;;5031817;28;20096;-50
2023/05/22 10:01:39;;;;;;;37.03;19.98;;;15.20;94.30;;;;;;5047700;28;20112;-52
2023/05/22 10:04:10;;;;;;;30.75;18.83;;;15.10;94.00;;;;;;5031832;28;20420;-53
2023/05/22 10:06:38;;;;;;;39.35;19.33;;;15.00;94.10;;;;;;5046746;28;20047;-48
2023/05/22 10:09:12;;;;;;;34.35;16.90;;;15.00;94.20;;;;;;5041123;28;20500;-49
2023/05/22 10:11:39;;;;;;;29.55;17.65;;;14.90;94.10;;;;;;5048414;28;20076;-49
2023/05/22 10:14:10;;;;;;;35.17;18.25;;;15.00;94.20;;;;;;5053099;28;20079;-47
2023/05/22 10:16:37;;;;;;;23.50;16.30;;;15.00;94.40;;;;;;5046858;28;20471;-47
2023/05/22 10:19:08;;;;;;;21.27;18.23;;;15.00;94.40;;;;;;5050682;28;20028;-48
2023/05/22 10:21:39;;;;;;;22.55;17.88;;;15.10;94.30;;;;;;5044544;28;20054;-47
2023/05/22 10:24:07;;;;;;;28.80;17.75;;;15.20;94.40;;;;;;5040744;28;20025;-48
2023/05/22 10:26:34;;;;;;;28.45;17.83;;;15.20;94.30;;;;;;5027264;28;20033;-48
2023/05/22 10:29:11;;;;;;;20.67;17.77;;;15.20;94.40;;;;;;5049917;28;20041;-47
2023/05/22 10:31:58;;;;;;;24.90;16.92;;;15.20;94.20;;;;;;5032022;28;20577;-47
2023/05/22 10:34:55;;;;;;;21.02;16.08;;;15.40;94.20;;;;;;5040532;28;20033;-50
2023/05/22 10:37:42;;;;;;;17.33;15.48;;;15.50;94.20;;;;;;5037954;28;20029;-50
2023/05/22 10:40:14;;;;;;;20.42;16.23;;;15.60;94.20;;;;;;5043413;28;20032;-46
2023/05/22 10:42:44;;;;;;;18.63;16.17;;;15.70;94.20;;;;;;5053021;28;20021;-45
2023/05/22 10:45:12;;;;;;;20.38;16.08;;;15.80;93.90;;;;;;5038319;28;20069;-50
2023/05/22 10:47:39;;;;;;;16.88;15.05;;;15.90;93.90;;;;;;5044331;28;20025;-50
2023/05/22 10:50:23;;;;;;;23.38;15.27;;;16.10;94.00;;;;;;5050595;28;20056;-49
2023/05/22 10:53:23;;;;;;;17.88;14.80;;;16.20;93.90;;;;;;5047230;28;20362;-48
2023/05/22 10:55:55;;;;;;;21.77;15.32;;;16.30;93.50;;;;;;5050566;28;20431;-46
2023/05/22 10:58:35;;;;;;;19.08;13.43;;;16.30;92.90;;;;;;5031175;28;20036;-45
2023/05/22 11:01:18;;;;;;;17.48;14.65;;;16.40;92.60;;;;;;5045229;28;20028;-44
2023/05/22 11:04:05;;;;;;;17.45;15.55;;;16.50;92.60;;;;;;5030321;28;20044;-48
2023/05/22 11:06:55;;;;;;;19.23;15.63;;;16.80;92.70;;;;;;5044359;28;20463;-48
2023/05/22 11:09:32;;;;;;;18.27;14.65;;;17.00;92.50;;;;;;5044587;28;20112;-49
2023/05/22 11:12:27;;;;;;;14.98;12.48;;;17.10;91.30;;;;;;5030688;28;20124;-45
2023/05/22 11:15:10;;;;;;;20.73;13.30;;;17.20;91.20;;;;;;5044762;28;20041;-46
2023/05/22 11:17:49;;;;;;;19.38;12.35;;;17.20;90.90;;;;;;5049722;28;20557;-47
2023/05/22 11:20:24;;;;;;;;;;;17.30;90.80;;;;;;5046049;28;20054;-48
2023/05/22 11:23:04;;;;;;;13.85;12.30;;;17.20;90.30;;;;;;5029092;28;19932;-45
2023/05/22 11:25:31;;;;;;;;;;;17.40;90.70;;;;;;5034395;28;20458;-47
2023/05/22 11:28:02;;;;;;;15.63;12.63;;;17.60;90.80;;;;;;5042659;28;19912;-46
2023/05/22 11:30:31;;;;;;;22.10;13.10;;;17.90;90.80;;;;;;5040879;28;20115;-45
2023/05/22 11:32:59;;;;;;;16.33;11.57;;;18.10;90.40;;;;;;5044268;28;20063;-43
2023/05/22 11:35:27;;;;;;;15.50;13.02;;;18.30;90.10;;;;;;5029564;28;20032;-44
2023/05/22 11:37:55;;;;;;;14.70;13.00;;;18.50;89.70;;;;;;5036733;28;20026;-43
2023/05/22 11:40:24;;;;;;;14.43;11.48;;;18.50;88.10;;;;;;5045877;28;20450;-45
2023/05/22 11:42:51;;;;;;;12.40;10.43;;;18.60;88.20;;;;;;5042633;28;20024;-44
2023/05/22 11:45:17;;;;;;;16.73;11.45;;;18.70;87.50;;;;;;5046326;28;20132;-43
2023/05/22 11:47:45;;;;;;;14.43;11.13;;;18.80;88.00;;;;;;5040246;28;20040;-45
2023/05/22 11:50:12;;;;;;;11.75;9.65;;;18.60;86.10;;;;;;5028534;28;20040;-43
2023/05/22 11:52:41;;;;;;;12.63;10.65;;;18.50;85.90;;;;;;5043936;28;20466;-43
2023/05/22 11:55:09;;;;;;;12.00;10.65;;;18.40;85.90;;;;;;5027833;28;20029;-43
2023/05/22 11:57:37;;;;;;;9.55;8.65;;;18.30;87.00;;;;;;5047507;28;20036;-43
2023/05/22 12:00:10;;;;;;;9.88;8.85;;;18.30;86.80;;;;;;5032571;28;20033;-44
2023/05/22 12:02:37;;;;;;;11.68;8.88;;;18.20;86.60;;;;;;5042052;28;20048;-43
2023/05/22 12:05:05;;;;;;;13.75;9.85;;;18.20;87.20;;;;;;5039708;28;20029;-42
2023/05/22 12:07:31;;;;;;;11.82;9.20;;;18.20;86.30;;;;;;5031989;28;20037;-43
2023/05/22 12:09:59;;;;;;;10.55;9.45;;;18.00;86.80;;;;;;5051143;28;20032;-46
2023/05/22 12:12:26;;;;;;;13.10;9.68;;;17.90;86.90;;;;;;5044082;28;20112;-47
2023/05/22 12:14:53;;;;;;;12.30;10.93;;;17.80;87.10;;;;;;5024492;28;20044;-43
2023/05/22 12:17:21;;;;;;;11.27;9.80;;;17.60;87.20;;;;;;5043202;28;20017;-43
2023/05/22 12:19:48;;;;;;;14.32;10.88;;;17.50;87.50;;;;;;5039743;28;20033;-43
2023/05/22 12:22:18;;;;;;;13.13;11.27;;;17.40;87.60;;;;;;5041247;28;20060;-45
2023/05/22 12:24:45;;;;;;;13.40;10.70;;;17.10;87.60;;;;;;5045658;28;20025;-47
2023/05/22 12:27:13;;;;;;;19.23;13.55;;;17.00;88.20;;;;;;5016765;28;20748;-50
2023/05/22 12:29:42;;;;;;;16.08;12.80;;;16.80;88.40;;;;;;5045698;28;20123;-51
2023/05/22 12:32:12;;;;;;;17.65;12.18;;;16.70;88.80;;;;;;5031569;28;20051;-49
2023/05/22 12:34:47;;;;;;;16.10;10.90;;;16.50;88.70;;;;;;5047411;28;20036;-50
2023/05/22 12:37:21;;;;;;;19.02;11.73;;;16.50;89.20;;;;;;5042655;28;20859;-49
2023/05/22 12:40:03;;;;;;;16.45;12.20;;;16.40;89.30;;;;;;5049042;28;20458;-51
2023/05/22 12:42:30;;;;;;;14.27;12.77;;;16.40;89.50;;;;;;5027446;28;20037;-49